Eakin, South Dakota
Current Conditions -  °F | °C
As of 11:53 PM on Friday 19 Dec 2014 (Local Time) from KPIR Reporting Station
Moderate Fog Moderate Fog  
Wind Chill: 14°   Ceiling: Unl
Heat Index: 14°   Visibility: 0.5mi
Dew Point: 12°   Wind: 0mph
Humidity: 92%   Direction: NA
Pressure: 29.96"   Gusts: NA
Location:  44.3693°N, 100.04°W
Report Text: KPIR 200553Z AUTO 00000KT 1/2SM FZFG CLR M10/M11 A2996 RMK AO2 SLP174 I6002 T11001111 11056 21100 410111122 53002
Loading
Personal Weather Stations






























Interactive Weather Map New forecast layout! Learn more

10-Day Weather Forecast

Advertisements
Track Severe Weather on mobile